Portada
METAR-TAF:

METAR-TAF

Aeroports :

Orange County Airport

Montgomery, Nova York, Estats Units d'Amèrica

latitud: 41-30-33N, longitud: 074-15-54W, altitud: 111 m

Observació

L'informe es va fer fa 38 minuts, a les 09:54 UTC
Vent calma
Temperatura -6°C
Humitat 93%
Pressió 1030 hPa
Visibilitat: 16.1 km
Cel clar

METAR: KMGJ 310954Z AUTO 00000KT 10SM CLR M06/M07 A3042 RMK AO2 SLP306 I1000 T10561067

Hora: 06:32 (10:32 UTC)


TAF: manca

Observacions i pronòstics meteorològics de més de 4000 aeroports (METAR i TAF).

Les estacions disponibles són els punts grocs i vermells al mapa.

Posi el ratolí al punt desitjat per veure el nom de l'estació.

Feu clic per veure les observacions i els pronòstics meteorològics.

Per canviar el mapa: feu clic els botons verds amb una creu de color negre per apropar; al botó verd amb un guió per allunyar la imatge; o en les fletxes verdes per a mapes adjacents.


METAR-TAF: